This is the latest recevied weather packets stored in our database for station/object NUUKSIO. If no packets are shown the sender has not sent any weather packets the latest 10 day(s).
| Time | Temp. | Humidity | Pressure | Rain* | Wind** | Luminosity | Snow |
|---|---|---|---|---|---|---|---|
| 1788503084 | 11.67° C | 100% | 999.7 hPa | 0 mm | - | - | - |
| 1788499274 | 10.56° C | 100% | 1000.1 hPa | 0 mm | - | - | - |
| 1788497083 | 10° C | 100% | 1000.5 hPa | 0 mm | - | - | - |
| 1788495883 | 10° C | 100% | 1000.6 hPa | 0 mm | - | - | - |
| 1788494684 | 9.44° C | 100% | 1000.8 hPa | 0 mm | - | - | - |
| 1788493483 | 8.89° C | 100% | 1001.2 hPa | 0 mm | - | - | - |
| 1788492284 | 9.44° C | 100% | 1001.4 hPa | 0 mm | - | - | - |
| 1788465884 | 9.44° C | 96% | 1005.1 hPa | 0 mm | - | - | - |
| 1788463482 | 9.44° C | 94% | 1005.2 hPa | 0 mm | - | - | - |
| 1788444281 | 17.22° C | 64% | 1004.8 hPa | 0 mm | - | - | - |
| 1788443081 | 16.11° C | 67% | 1004.9 hPa | 0 mm | - | - | - |
| 1788441882 | 16.67° C | 65% | 1004.8 hPa | 0 mm | - | - | - |
| 1788440681 | 17.22° C | 62% | 1004.7 hPa | 0 mm | - | - | - |
| 1788438280 | 17.78° C | 53% | 1004.7 hPa | 0 mm | - | - | - |
| 1788435881 | 19.44° C | 47% | 1004.7 hPa | 0 mm | - | - | - |
| 1788434681 | 19.44° C | 51% | 1004.8 hPa | 0 mm | - | - | - |
| 1788433481 | 18.89° C | 50% | 1004.9 hPa | 0 mm | - | - | - |
| 1788432281 | 17.78° C | 50% | 1005 hPa | 0 mm | - | - | - |
| 1788431080 | 18.33° C | 52% | 1005 hPa | 0 mm | - | - | - |
| 1788429881 | 18.33° C | 52% | 1005 hPa | 0 mm | - | - | - |
| 1788426280 | 18.33° C | 61% | 1005.2 hPa | 0 mm | - | - | - |
| 1788423880 | 16.67° C | 62% | 1005.4 hPa | 0 mm | - | - | - |
| 1788422682 | 16.11° C | 73% | 1005.5 hPa | 0 mm | - | - | - |
| 1788421480 | 15.56° C | 77% | 1005.7 hPa | 0 mm | - | - | - |
| 1788419079 | 13.89° C | 94% | 1005.7 hPa | 0 mm | - | - | - |
* Rain latest hour (hover to see other rain measurements)
** Current wind speed in m/s (hover to see current wind gust speed)